sensor_id;sensor_type;location;lat;lon;timestamp;pressure;altitude;pressure_sealevel;temperature;humidity
41140;BME280;26881;48.784;9.192;2023-07-31T00:00:03;98644.47;;;17.25;61.71
41140;BME280;26881;48.784;9.192;2023-07-31T00:05:25;98636.94;;;17.21;61.98
41140;BME280;26881;48.784;9.192;2023-07-31T00:10:51;98636.22;;;17.19;62.06
41140;BME280;26881;48.784;9.192;2023-07-31T00:16:13;98633.53;;;17.09;62.57
41140;BME280;26881;48.784;9.192;2023-07-31T00:21:35;98636.38;;;16.96;63.74
41140;BME280;26881;48.784;9.192;2023-07-31T00:26:57;98641.91;;;16.93;63.68
41140;BME280;26881;48.784;9.192;2023-07-31T00:32:19;98637.41;;;16.84;64.45
41140;BME280;26881;48.784;9.192;2023-07-31T00:37:41;98625.91;;;16.74;64.97
41140;BME280;26881;48.784;9.192;2023-07-31T00:43:03;98628.06;;;16.69;65.73
41140;BME280;26881;48.784;9.192;2023-07-31T00:48:25;98621.78;;;16.60;66.26
41140;BME280;26881;48.784;9.192;2023-07-31T00:53:48;98618.88;;;16.63;66.82
41140;BME280;26881;48.784;9.192;2023-07-31T00:59:10;98626.91;;;16.61;66.80
41140;BME280;26881;48.784;9.192;2023-07-31T01:04:32;98628.84;;;16.59;68.35
41140;BME280;26881;48.784;9.192;2023-07-31T01:10:04;98630.91;;;16.56;68.44
41140;BME280;26881;48.784;9.192;2023-07-31T01:15:27;98625.09;;;16.41;68.57
41140;BME280;26881;48.784;9.192;2023-07-31T01:21:00;98617.41;;;16.38;69.74
41140;BME280;26881;48.784;9.192;2023-07-31T01:26:28;98610.50;;;16.26;70.09
41140;BME280;26881;48.784;9.192;2023-07-31T01:31:53;98608.63;;;16.16;70.33
41140;BME280;26881;48.784;9.192;2023-07-31T01:37:17;98616.06;;;16.22;71.73
41140;BME280;26881;48.784;9.192;2023-07-31T01:42:39;98598.97;;;16.27;70.13
41140;BME280;26881;48.784;9.192;2023-07-31T01:48:00;98596.50;;;16.25;69.28
41140;BME280;26881;48.784;9.192;2023-07-31T01:53:22;98594.22;;;16.20;69.18
41140;BME280;26881;48.784;9.192;2023-07-31T01:58:44;98580.16;;;16.20;69.32
41140;BME280;26881;48.784;9.192;2023-07-31T02:04:06;98581.63;;;16.13;70.28
41140;BME280;26881;48.784;9.192;2023-07-31T02:09:28;98576.25;;;16.14;71.27
41140;BME280;26881;48.784;9.192;2023-07-31T02:14:50;98569.25;;;16.25;69.10
41140;BME280;26881;48.784;9.192;2023-07-31T02:20:12;98564.19;;;16.33;68.43
41140;BME280;26881;48.784;9.192;2023-07-31T02:25:33;98557.63;;;16.48;66.98
41140;BME280;26881;48.784;9.192;2023-07-31T02:30:55;98552.03;;;16.62;65.93
41140;BME280;26881;48.784;9.192;2023-07-31T02:36:17;98544.50;;;16.58;65.87
41140;BME280;26881;48.784;9.192;2023-07-31T02:41:39;98542.25;;;16.53;65.92
41140;BME280;26881;48.784;9.192;2023-07-31T02:47:01;98548.69;;;16.60;65.58
41140;BME280;26881;48.784;9.192;2023-07-31T02:52:24;98534.06;;;16.56;65.34
41140;BME280;26881;48.784;9.192;2023-07-31T02:57:46;98538.38;;;16.57;65.43
41140;BME280;26881;48.784;9.192;2023-07-31T03:03:09;98524.16;;;16.49;66.18
41140;BME280;26881;48.784;9.192;2023-07-31T03:08:31;98530.38;;;16.27;66.70
41140;BME280;26881;48.784;9.192;2023-07-31T03:13:53;98526.06;;;16.26;66.54
41140;BME280;26881;48.784;9.192;2023-07-31T03:19:15;98539.78;;;16.40;65.66
41140;BME280;26881;48.784;9.192;2023-07-31T03:24:37;98534.31;;;16.32;66.26
41140;BME280;26881;48.784;9.192;2023-07-31T03:29:59;98535.72;;;16.15;67.34
41140;BME280;26881;48.784;9.192;2023-07-31T03:35:22;98538.59;;;16.12;67.49
41140;BME280;26881;48.784;9.192;2023-07-31T03:40:44;98528.22;;;15.99;68.86
41140;BME280;26881;48.784;9.192;2023-07-31T03:46:06;98539.00;;;15.96;70.28
41140;BME280;26881;48.784;9.192;2023-07-31T03:51:28;98540.81;;;15.96;71.14
41140;BME280;26881;48.784;9.192;2023-07-31T03:56:50;98537.97;;;15.88;72.10
41140;BME280;26881;48.784;9.192;2023-07-31T04:02:12;98543.25;;;15.88;72.00
41140;BME280;26881;48.784;9.192;2023-07-31T04:07:36;98542.03;;;15.92;69.42
41140;BME280;26881;48.784;9.192;2023-07-31T04:12:58;98536.50;;;16.27;66.13
41140;BME280;26881;48.784;9.192;2023-07-31T04:18:20;98527.13;;;16.55;64.20
41140;BME280;26881;48.784;9.192;2023-07-31T04:23:42;98525.09;;;16.69;63.63
41140;BME280;26881;48.784;9.192;2023-07-31T04:29:03;98521.28;;;16.82;63.04
41140;BME280;26881;48.784;9.192;2023-07-31T04:34:25;98515.47;;;16.79;63.19
41140;BME280;26881;48.784;9.192;2023-07-31T04:39:47;98514.59;;;16.78;63.37
41140;BME280;26881;48.784;9.192;2023-07-31T04:45:09;98526.81;;;17.00;61.89
41140;BME280;26881;48.784;9.192;2023-07-31T04:50:31;98526.94;;;16.99;62.65
41140;BME280;26881;48.784;9.192;2023-07-31T04:55:53;98518.25;;;17.18;61.99
41140;BME280;26881;48.784;9.192;2023-07-31T05:01:15;98520.56;;;17.42;60.98
41140;BME280;26881;48.784;9.192;2023-07-31T05:06:37;98522.63;;;17.38;61.50
41140;BME280;26881;48.784;9.192;2023-07-31T05:11:59;98514.00;;;17.36;61.66
41140;BME280;26881;48.784;9.192;2023-07-31T05:17:21;98503.81;;;17.32;62.14
41140;BME280;26881;48.784;9.192;2023-07-31T05:22:43;98506.88;;;17.27;62.06
41140;BME280;26881;48.784;9.192;2023-07-31T05:28:05;98521.06;;;17.26;62.06
41140;BME280;26881;48.784;9.192;2023-07-31T05:33:27;98518.00;;;17.21;62.66
41140;BME280;26881;48.784;9.192;2023-07-31T05:38:49;98509.97;;;17.32;62.48
41140;BME280;26881;48.784;9.192;2023-07-31T05:44:11;98514.69;;;17.38;62.62
41140;BME280;26881;48.784;9.192;2023-07-31T05:49:33;98514.22;;;17.74;61.27
41140;BME280;26881;48.784;9.192;2023-07-31T05:54:55;98496.72;;;17.92;60.40
41140;BME280;26881;48.784;9.192;2023-07-31T06:00:17;98488.09;;;18.00;59.19
41140;BME280;26881;48.784;9.192;2023-07-31T06:05:39;98497.25;;;18.15;58.63
41140;BME280;26881;48.784;9.192;2023-07-31T06:11:00;98493.91;;;18.32;57.80
41140;BME280;26881;48.784;9.192;2023-07-31T06:16:25;98490.09;;;18.54;57.50
41140;BME280;26881;48.784;9.192;2023-07-31T06:21:47;98493.84;;;18.81;57.07
41140;BME280;26881;48.784;9.192;2023-07-31T06:27:09;98494.63;;;18.91;55.89
41140;BME280;26881;48.784;9.192;2023-07-31T06:32:30;98496.31;;;19.20;54.86
41140;BME280;26881;48.784;9.192;2023-07-31T06:37:52;98490.59;;;19.43;53.92
41140;BME280;26881;48.784;9.192;2023-07-31T06:43:14;98496.91;;;19.59;53.81
41140;BME280;26881;48.784;9.192;2023-07-31T06:48:36;98496.59;;;19.63;53.32
41140;BME280;26881;48.784;9.192;2023-07-31T06:53:59;98507.53;;;19.59;53.58
41140;BME280;26881;48.784;9.192;2023-07-31T06:59:21;98503.47;;;19.83;52.60
41140;BME280;26881;48.784;9.192;2023-07-31T07:04:42;98502.50;;;20.02;51.86
41140;BME280;26881;48.784;9.192;2023-07-31T07:10:05;98497.44;;;19.91;51.99
41140;BME280;26881;48.784;9.192;2023-07-31T07:15:27;98498.28;;;19.91;52.11
41140;BME280;26881;48.784;9.192;2023-07-31T07:20:53;98496.88;;;20.23;51.06
41140;BME280;26881;48.784;9.192;2023-07-31T07:26:15;98492.00;;;20.36;50.93
41140;BME280;26881;48.784;9.192;2023-07-31T07:31:37;98481.94;;;20.66;49.96
41140;BME280;26881;48.784;9.192;2023-07-31T07:36:59;98475.56;;;20.85;50.18
41140;BME280;26881;48.784;9.192;2023-07-31T07:42:21;98487.47;;;20.55;50.02
41140;BME280;26881;48.784;9.192;2023-07-31T07:47:43;98480.91;;;20.59;49.70
41140;BME280;26881;48.784;9.192;2023-07-31T07:53:05;98480.78;;;20.69;49.87
41140;BME280;26881;48.784;9.192;2023-07-31T07:58:26;98475.16;;;20.72;49.68
41140;BME280;26881;48.784;9.192;2023-07-31T08:03:49;98487.38;;;20.91;49.16
41140;BME280;26881;48.784;9.192;2023-07-31T08:09:11;98467.47;;;20.95;48.97
41140;BME280;26881;48.784;9.192;2023-07-31T08:14:33;98456.41;;;21.16;48.39
41140;BME280;26881;48.784;9.192;2023-07-31T08:19:55;98461.59;;;21.25;48.17
41140;BME280;26881;48.784;9.192;2023-07-31T08:25:19;98465.81;;;21.44;48.11
41140;BME280;26881;48.784;9.192;2023-07-31T08:30:42;98460.03;;;21.49;47.14
41140;BME280;26881;48.784;9.192;2023-07-31T08:36:04;98454.09;;;21.72;47.67
41140;BME280;26881;48.784;9.192;2023-07-31T08:41:27;98450.09;;;21.76;46.92
41140;BME280;26881;48.784;9.192;2023-07-31T08:46:49;98445.28;;;22.04;45.85
41140;BME280;26881;48.784;9.192;2023-07-31T08:52:11;98431.16;;;22.03;46.10
41140;BME280;26881;48.784;9.192;2023-07-31T08:57:35;98430.81;;;22.06;45.96
41140;BME280;26881;48.784;9.192;2023-07-31T09:03:00;98436.09;;;22.56;45.80
41140;BME280;26881;48.784;9.192;2023-07-31T09:08:26;98425.09;;;22.50;44.76
41140;BME280;26881;48.784;9.192;2023-07-31T09:13:52;98403.72;;;22.75;44.94
41140;BME280;26881;48.784;9.192;2023-07-31T09:19:25;98405.59;;;23.60;43.28
41140;BME280;26881;48.784;9.192;2023-07-31T09:24:47;98418.53;;;23.48;43.16
41140;BME280;26881;48.784;9.192;2023-07-31T09:30:09;98417.72;;;23.48;43.50
41140;BME280;26881;48.784;9.192;2023-07-31T09:35:33;98401.69;;;23.71;42.84
41140;BME280;26881;48.784;9.192;2023-07-31T09:40:58;98409.78;;;23.00;44.13
41140;BME280;26881;48.784;9.192;2023-07-31T09:46:21;98397.88;;;22.24;46.08
41140;BME280;26881;48.784;9.192;2023-07-31T09:51:43;98390.50;;;22.26;45.75
41140;BME280;26881;48.784;9.192;2023-07-31T09:57:05;98361.50;;;22.87;44.74
41140;BME280;26881;48.784;9.192;2023-07-31T10:02:30;98362.38;;;23.88;42.34
41140;BME280;26881;48.784;9.192;2023-07-31T10:07:54;98355.06;;;22.73;44.87
41140;BME280;26881;48.784;9.192;2023-07-31T10:13:17;98349.13;;;23.48;42.27
41140;BME280;26881;48.784;9.192;2023-07-31T10:18:40;98336.31;;;24.19;41.28
41140;BME280;26881;48.784;9.192;2023-07-31T10:24:04;98332.88;;;23.96;41.94
41140;BME280;26881;48.784;9.192;2023-07-31T10:29:27;98346.84;;;24.06;41.40
41140;BME280;26881;48.784;9.192;2023-07-31T10:34:51;98326.41;;;24.43;40.54
41140;BME280;26881;48.784;9.192;2023-07-31T10:40:26;98305.47;;;25.34;39.68
41140;BME280;26881;48.784;9.192;2023-07-31T10:45:49;98321.56;;;24.83;40.04
41140;BME280;26881;48.784;9.192;2023-07-31T10:51:11;98328.78;;;24.68;40.50
41140;BME280;26881;48.784;9.192;2023-07-31T10:56:37;98326.75;;;24.40;40.61
41140;BME280;26881;48.784;9.192;2023-07-31T11:02:00;98314.94;;;24.79;39.75
41140;BME280;26881;48.784;9.192;2023-07-31T11:07:24;98286.25;;;25.80;37.92
41140;BME280;26881;48.784;9.192;2023-07-31T11:12:46;98283.19;;;27.15;35.71
41140;BME280;26881;48.784;9.192;2023-07-31T11:18:08;98287.00;;;25.96;36.58
41140;BME280;26881;48.784;9.192;2023-07-31T11:23:32;98303.03;;;25.18;38.49
41140;BME280;26881;48.784;9.192;2023-07-31T11:28:54;98304.91;;;24.22;41.05
41140;BME280;26881;48.784;9.192;2023-07-31T11:34:16;98303.44;;;24.04;41.81
41140;BME280;26881;48.784;9.192;2023-07-31T11:39:39;98304.22;;;23.52;42.18
41140;BME280;26881;48.784;9.192;2023-07-31T11:45:04;98311.22;;;23.07;43.28
41140;BME280;26881;48.784;9.192;2023-07-31T11:50:26;98295.13;;;23.23;43.38
41140;BME280;26881;48.784;9.192;2023-07-31T11:55:49;98280.06;;;23.68;42.33
41140;BME280;26881;48.784;9.192;2023-07-31T12:01:11;98268.59;;;23.97;42.63
41140;BME280;26881;48.784;9.192;2023-07-31T12:06:37;98252.94;;;24.24;41.91
41140;BME280;26881;48.784;9.192;2023-07-31T12:11:59;98252.75;;;23.96;42.82
41140;BME280;26881;48.784;9.192;2023-07-31T12:17:21;98244.66;;;24.34;42.32
41140;BME280;26881;48.784;9.192;2023-07-31T12:22:43;98241.63;;;24.07;42.43
41140;BME280;26881;48.784;9.192;2023-07-31T12:28:06;98244.75;;;23.96;43.02
41140;BME280;26881;48.784;9.192;2023-07-31T12:33:37;98234.78;;;23.75;43.05
41140;BME280;26881;48.784;9.192;2023-07-31T12:39:00;98233.81;;;23.53;43.92
41140;BME280;26881;48.784;9.192;2023-07-31T12:44:22;98229.75;;;23.42;44.09
41140;BME280;26881;48.784;9.192;2023-07-31T12:49:43;98216.97;;;23.14;43.88
41140;BME280;26881;48.784;9.192;2023-07-31T12:55:06;98222.09;;;23.01;44.18
41140;BME280;26881;48.784;9.192;2023-07-31T13:00:28;98210.78;;;22.91;44.63
41140;BME280;26881;48.784;9.192;2023-07-31T13:05:50;98189.56;;;23.06;44.84
41140;BME280;26881;48.784;9.192;2023-07-31T13:11:12;98187.78;;;23.51;44.20
41140;BME280;26881;48.784;9.192;2023-07-31T13:16:33;98191.56;;;23.42;43.63
41140;BME280;26881;48.784;9.192;2023-07-31T13:21:55;98184.22;;;23.73;43.34
41140;BME280;26881;48.784;9.192;2023-07-31T13:27:17;98186.63;;;23.98;43.25
41140;BME280;26881;48.784;9.192;2023-07-31T13:32:41;98175.28;;;23.96;42.12
41140;BME280;26881;48.784;9.192;2023-07-31T13:38:03;98154.41;;;24.36;41.93
41140;BME280;26881;48.784;9.192;2023-07-31T13:43:25;98151.59;;;25.30;40.38
41140;BME280;26881;48.784;9.192;2023-07-31T13:48:46;98157.22;;;25.14;40.73
41140;BME280;26881;48.784;9.192;2023-07-31T13:54:08;98152.41;;;24.81;41.02
41140;BME280;26881;48.784;9.192;2023-07-31T13:59:30;98139.94;;;24.88;41.32
41140;BME280;26881;48.784;9.192;2023-07-31T14:04:52;98129.59;;;25.07;41.23
41140;BME280;26881;48.784;9.192;2023-07-31T14:10:14;98122.69;;;24.69;41.92
41140;BME280;26881;48.784;9.192;2023-07-31T14:15:36;98134.06;;;24.56;42.36
41140;BME280;26881;48.784;9.192;2023-07-31T14:20:58;98127.25;;;24.54;41.69
41140;BME280;26881;48.784;9.192;2023-07-31T14:26:20;98126.91;;;24.42;42.51
41140;BME280;26881;48.784;9.192;2023-07-31T14:31:42;98114.34;;;24.21;42.89
41140;BME280;26881;48.784;9.192;2023-07-31T14:37:04;98112.16;;;24.46;43.10
41140;BME280;26881;48.784;9.192;2023-07-31T14:42:26;98102.50;;;24.67;42.80
41140;BME280;26881;48.784;9.192;2023-07-31T14:47:48;98097.03;;;24.53;43.89
41140;BME280;26881;48.784;9.192;2023-07-31T14:53:10;98090.03;;;25.02;42.64
41140;BME280;26881;48.784;9.192;2023-07-31T14:58:32;98101.47;;;25.46;41.31
41140;BME280;26881;48.784;9.192;2023-07-31T15:03:53;98091.91;;;25.71;40.26
41140;BME280;26881;48.784;9.192;2023-07-31T15:09:15;98085.03;;;25.55;39.58
41140;BME280;26881;48.784;9.192;2023-07-31T15:14:37;98078.09;;;25.68;39.99
41140;BME280;26881;48.784;9.192;2023-07-31T15:19:59;98079.53;;;26.32;38.62
41140;BME280;26881;48.784;9.192;2023-07-31T15:25:25;98057.28;;;27.89;35.66
41140;BME280;26881;48.784;9.192;2023-07-31T15:30:46;98060.75;;;27.45;35.68
41140;BME280;26881;48.784;9.192;2023-07-31T15:36:09;98046.88;;;27.54;35.71
41140;BME280;26881;48.784;9.192;2023-07-31T15:41:31;98035.84;;;26.98;36.24
41140;BME280;26881;48.784;9.192;2023-07-31T15:46:53;98018.69;;;27.05;36.39
41140;BME280;26881;48.784;9.192;2023-07-31T15:52:15;98006.47;;;27.29;36.27
41140;BME280;26881;48.784;9.192;2023-07-31T15:57:37;98006.06;;;27.84;34.80
41140;BME280;26881;48.784;9.192;2023-07-31T16:02:59;97980.03;;;27.26;36.39
41140;BME280;26881;48.784;9.192;2023-07-31T16:08:21;97997.84;;;27.01;36.82
41140;BME280;26881;48.784;9.192;2023-07-31T16:13:42;98007.78;;;26.34;38.07
41140;BME280;26881;48.784;9.192;2023-07-31T16:19:04;98009.84;;;26.18;39.02
41140;BME280;26881;48.784;9.192;2023-07-31T16:24:26;97994.47;;;25.79;39.35
41140;BME280;26881;48.784;9.192;2023-07-31T16:29:48;97991.00;;;25.30;40.25
41140;BME280;26881;48.784;9.192;2023-07-31T16:35:10;97998.28;;;25.15;40.71
41140;BME280;26881;48.784;9.192;2023-07-31T16:40:32;98009.72;;;24.95;41.47
41140;BME280;26881;48.784;9.192;2023-07-31T16:45:55;98007.09;;;25.02;41.63
41140;BME280;26881;48.784;9.192;2023-07-31T16:51:18;98008.53;;;24.70;42.17
41140;BME280;26881;48.784;9.192;2023-07-31T16:56:41;98013.88;;;24.05;43.54
41140;BME280;26881;48.784;9.192;2023-07-31T17:02:20;98007.16;;;23.88;44.13
41140;BME280;26881;48.784;9.192;2023-07-31T17:07:42;98004.47;;;23.88;44.28
41140;BME280;26881;48.784;9.192;2023-07-31T17:13:04;98000.09;;;23.80;44.25
41140;BME280;26881;48.784;9.192;2023-07-31T17:18:25;97990.53;;;23.56;45.15
41140;BME280;26881;48.784;9.192;2023-07-31T17:23:47;97980.28;;;23.38;45.44
41140;BME280;26881;48.784;9.192;2023-07-31T17:29:13;97982.41;;;23.28;45.92
41140;BME280;26881;48.784;9.192;2023-07-31T17:34:36;97995.66;;;23.36;45.71
41140;BME280;26881;48.784;9.192;2023-07-31T17:39:58;97978.72;;;23.14;46.30
41140;BME280;26881;48.784;9.192;2023-07-31T17:45:20;97975.78;;;23.09;46.55
41140;BME280;26881;48.784;9.192;2023-07-31T17:50:47;97971.53;;;23.14;46.11
41140;BME280;26881;48.784;9.192;2023-07-31T17:56:09;97971.91;;;22.97;46.68
41140;BME280;26881;48.784;9.192;2023-07-31T18:01:31;97968.03;;;22.84;47.26
41140;BME280;26881;48.784;9.192;2023-07-31T18:06:56;97971.34;;;22.86;47.57
41140;BME280;26881;48.784;9.192;2023-07-31T18:12:18;97976.88;;;22.85;47.97
41140;BME280;26881;48.784;9.192;2023-07-31T18:17:40;97972.81;;;22.74;48.18
41140;BME280;26881;48.784;9.192;2023-07-31T18:23:02;97947.72;;;22.68;48.32
41140;BME280;26881;48.784;9.192;2023-07-31T18:28:24;97943.38;;;22.52;50.66
41140;BME280;26881;48.784;9.192;2023-07-31T18:33:46;97948.06;;;22.36;50.62
41140;BME280;26881;48.784;9.192;2023-07-31T18:39:08;97949.53;;;22.38;51.27
41140;BME280;26881;48.784;9.192;2023-07-31T18:44:30;97948.06;;;22.13;53.38
41140;BME280;26881;48.784;9.192;2023-07-31T18:49:52;97958.75;;;22.04;54.46
41140;BME280;26881;48.784;9.192;2023-07-31T18:55:13;97943.31;;;22.00;55.39
41140;BME280;26881;48.784;9.192;2023-07-31T19:00:35;97962.97;;;21.76;61.26
41140;BME280;26881;48.784;9.192;2023-07-31T19:06:04;97985.28;;;21.43;65.81
41140;BME280;26881;48.784;9.192;2023-07-31T19:11:26;97979.50;;;21.23;69.79
41140;BME280;26881;48.784;9.192;2023-07-31T19:16:54;97968.63;;;21.02;69.47
41140;BME280;26881;48.784;9.192;2023-07-31T19:22:16;97980.34;;;20.76;75.36
41140;BME280;26881;48.784;9.192;2023-07-31T19:27:38;97973.06;;;20.62;75.06
41140;BME280;26881;48.784;9.192;2023-07-31T19:33:00;97962.13;;;20.24;78.99
41140;BME280;26881;48.784;9.192;2023-07-31T19:38:22;97972.25;;;20.04;81.31
41140;BME280;26881;48.784;9.192;2023-07-31T19:43:44;97985.19;;;19.99;79.46
41140;BME280;26881;48.784;9.192;2023-07-31T19:49:06;97984.69;;;19.87;81.14
41140;BME280;26881;48.784;9.192;2023-07-31T19:54:28;97983.66;;;19.72;84.06
41140;BME280;26881;48.784;9.192;2023-07-31T19:59:49;97973.97;;;19.54;85.99
41140;BME280;26881;48.784;9.192;2023-07-31T20:05:11;97956.69;;;19.34;89.67
41140;BME280;26881;48.784;9.192;2023-07-31T20:10:33;97950.09;;;18.95;92.64
41140;BME280;26881;48.784;9.192;2023-07-31T20:15:55;97950.59;;;18.99;95.94
41140;BME280;26881;48.784;9.192;2023-07-31T20:21:17;97937.06;;;19.10;93.84
41140;BME280;26881;48.784;9.192;2023-07-31T20:26:39;97924.09;;;18.99;95.27
41140;BME280;26881;48.784;9.192;2023-07-31T20:32:02;97920.13;;;19.03;95.67
41140;BME280;26881;48.784;9.192;2023-07-31T20:37:25;97915.66;;;19.04;100.00
41140;BME280;26881;48.784;9.192;2023-07-31T20:42:57;97916.97;;;19.00;100.00
41140;BME280;26881;48.784;9.192;2023-07-31T20:48:19;97902.34;;;18.87;97.89
41140;BME280;26881;48.784;9.192;2023-07-31T20:53:41;97892.63;;;18.96;100.00
41140;BME280;26881;48.784;9.192;2023-07-31T20:59:03;97880.31;;;18.87;100.00
41140;BME280;26881;48.784;9.192;2023-07-31T21:04:25;97874.06;;;18.96;100.00
41140;BME280;26881;48.784;9.192;2023-07-31T21:09:47;97871.91;;;19.00;100.00
41140;BME280;26881;48.784;9.192;2023-07-31T21:15:10;97854.69;;;18.95;100.00
41140;BME280;26881;48.784;9.192;2023-07-31T21:20:33;97847.91;;;18.93;100.00
41140;BME280;26881;48.784;9.192;2023-07-31T21:25:55;97835.63;;;18.84;100.00
41140;BME280;26881;48.784;9.192;2023-07-31T21:31:17;97815.34;;;18.74;100.00
41140;BME280;26881;48.784;9.192;2023-07-31T21:36:39;97802.81;;;18.77;100.00
41140;BME280;26881;48.784;9.192;2023-07-31T21:42:01;97789.25;;;18.80;100.00
41140;BME280;26881;48.784;9.192;2023-07-31T21:47:23;97788.56;;;18.78;100.00
41140;BME280;26881;48.784;9.192;2023-07-31T21:52:45;97772.44;;;18.71;100.00
41140;BME280;26881;48.784;9.192;2023-07-31T21:58:07;97766.00;;;18.65;100.00
41140;BME280;26881;48.784;9.192;2023-07-31T22:03:29;97746.44;;;18.58;100.00
41140;BME280;26881;48.784;9.192;2023-07-31T22:08:51;97733.84;;;18.52;100.00
41140;BME280;26881;48.784;9.192;2023-07-31T22:14:13;97719.78;;;18.51;100.00
41140;BME280;26881;48.784;9.192;2023-07-31T22:19:35;97697.44;;;18.54;100.00
41140;BME280;26881;48.784;9.192;2023-07-31T22:24:57;97697.44;;;18.54;100.00
41140;BME280;26881;48.784;9.192;2023-07-31T22:30:18;97685.69;;;18.57;99.16
41140;BME280;26881;48.784;9.192;2023-07-31T22:35:41;97671.63;;;18.64;94.29
41140;BME280;26881;48.784;9.192;2023-07-31T22:41:03;97663.69;;;18.64;94.09
41140;BME280;26881;48.784;9.192;2023-07-31T22:46:26;97656.63;;;18.98;84.55
41140;BME280;26881;48.784;9.192;2023-07-31T22:51:48;97646.03;;;18.98;83.13
41140;BME280;26881;48.784;9.192;2023-07-31T22:57:10;97638.72;;;19.00;82.38
41140;BME280;26881;48.784;9.192;2023-07-31T23:02:32;97640.22;;;19.02;81.87
41140;BME280;26881;48.784;9.192;2023-07-31T23:07:54;97618.03;;;19.03;81.07
41140;BME280;26881;48.784;9.192;2023-07-31T23:13:16;97620.81;;;19.18;77.90
41140;BME280;26881;48.784;9.192;2023-07-31T23:18:38;97616.97;;;19.29;76.57
41140;BME280;26881;48.784;9.192;2023-07-31T23:24:00;97607.91;;;19.15;78.00
41140;BME280;26881;48.784;9.192;2023-07-31T23:29:22;97620.81;;;19.02;79.60
41140;BME280;26881;48.784;9.192;2023-07-31T23:34:44;97631.13;;;19.05;78.59
41140;BME280;26881;48.784;9.192;2023-07-31T23:40:06;97629.28;;;19.05;80.48
41140;BME280;26881;48.784;9.192;2023-07-31T23:45:28;97616.66;;;19.15;78.61
41140;BME280;26881;48.784;9.192;2023-07-31T23:50:50;97605.09;;;18.92;81.79
41140;BME280;26881;48.784;9.192;2023-07-31T23:56:12;97600.59;;;19.09;80.25
